sensor_id;sensor_type;location;lat;lon;timestamp;temperature;humidity
35111;DHT22;21290;50.158;8.658;2023-04-25T00:00:49;8.10;99.90
35111;DHT22;21290;50.158;8.658;2023-04-25T00:03:16;8.10;99.90
35111;DHT22;21290;50.158;8.658;2023-04-25T00:05:45;8.10;99.90
35111;DHT22;21290;50.158;8.658;2023-04-25T00:08:12;8.00;99.90
35111;DHT22;21290;50.158;8.658;2023-04-25T00:10:38;8.10;99.90
35111;DHT22;21290;50.158;8.658;2023-04-25T00:13:05;8.10;99.90
35111;DHT22;21290;50.158;8.658;2023-04-25T00:15:32;8.00;99.90
35111;DHT22;21290;50.158;8.658;2023-04-25T00:17:59;8.00;99.90
35111;DHT22;21290;50.158;8.658;2023-04-25T00:20:25;8.00;99.90
35111;DHT22;21290;50.158;8.658;2023-04-25T00:22:52;8.00;99.90
35111;DHT22;21290;50.158;8.658;2023-04-25T00:25:22;8.00;99.90
35111;DHT22;21290;50.158;8.658;2023-04-25T00:27:48;7.90;99.90
35111;DHT22;21290;50.158;8.658;2023-04-25T00:30:15;7.90;99.90
35111;DHT22;21290;50.158;8.658;2023-04-25T00:32:41;7.90;99.90
35111;DHT22;21290;50.158;8.658;2023-04-25T00:35:09;7.90;99.90
35111;DHT22;21290;50.158;8.658;2023-04-25T00:37:35;7.90;99.90
35111;DHT22;21290;50.158;8.658;2023-04-25T00:40:07;8.00;99.90
35111;DHT22;21290;50.158;8.658;2023-04-25T00:42:35;8.00;99.90
35111;DHT22;21290;50.158;8.658;2023-04-25T00:45:05;8.00;99.90
35111;DHT22;21290;50.158;8.658;2023-04-25T00:47:32;8.00;99.90
35111;DHT22;21290;50.158;8.658;2023-04-25T00:49:59;7.90;99.90
35111;DHT22;21290;50.158;8.658;2023-04-25T00:52:26;7.90;99.90
35111;DHT22;21290;50.158;8.658;2023-04-25T00:54:52;7.90;99.90
35111;DHT22;21290;50.158;8.658;2023-04-25T00:57:19;7.90;99.90
35111;DHT22;21290;50.158;8.658;2023-04-25T00:59:45;7.90;99.90
35111;DHT22;21290;50.158;8.658;2023-04-25T01:02:15;7.90;99.90
35111;DHT22;21290;50.158;8.658;2023-04-25T01:04:42;7.90;99.90
35111;DHT22;21290;50.158;8.658;2023-04-25T01:07:09;7.90;99.90
35111;DHT22;21290;50.158;8.658;2023-04-25T01:09:36;7.90;99.90
35111;DHT22;21290;50.158;8.658;2023-04-25T01:12:03;7.90;99.90
35111;DHT22;21290;50.158;8.658;2023-04-25T01:14:30;7.90;99.90
35111;DHT22;21290;50.158;8.658;2023-04-25T01:16:57;7.90;99.90
35111;DHT22;21290;50.158;8.658;2023-04-25T01:19:24;7.90;99.90
35111;DHT22;21290;50.158;8.658;2023-04-25T01:21:51;7.90;99.90
35111;DHT22;21290;50.158;8.658;2023-04-25T01:24:18;7.90;99.90
35111;DHT22;21290;50.158;8.658;2023-04-25T01:26:45;7.90;99.90
35111;DHT22;21290;50.158;8.658;2023-04-25T01:29:17;7.90;99.90
35111;DHT22;21290;50.158;8.658;2023-04-25T01:31:44;7.90;99.90
35111;DHT22;21290;50.158;8.658;2023-04-25T01:34:12;7.90;99.90
35111;DHT22;21290;50.158;8.658;2023-04-25T01:36:39;8.00;99.90
35111;DHT22;21290;50.158;8.658;2023-04-25T01:39:07;7.90;99.90
35111;DHT22;21290;50.158;8.658;2023-04-25T01:41:34;7.90;99.90
35111;DHT22;21290;50.158;8.658;2023-04-25T01:44:02;7.90;99.90
35111;DHT22;21290;50.158;8.658;2023-04-25T01:46:29;7.90;99.90
35111;DHT22;21290;50.158;8.658;2023-04-25T01:48:57;7.90;99.90
35111;DHT22;21290;50.158;8.658;2023-04-25T01:51:23;7.80;99.90
35111;DHT22;21290;50.158;8.658;2023-04-25T01:53:50;7.80;99.90
35111;DHT22;21290;50.158;8.658;2023-04-25T01:56:18;7.80;99.90
35111;DHT22;21290;50.158;8.658;2023-04-25T01:58:45;7.80;99.90
35111;DHT22;21290;50.158;8.658;2023-04-25T02:01:12;7.80;99.90
35111;DHT22;21290;50.158;8.658;2023-04-25T02:03:39;7.80;99.90
35111;DHT22;21290;50.158;8.658;2023-04-25T02:06:06;7.70;99.90
35111;DHT22;21290;50.158;8.658;2023-04-25T02:08:32;7.70;99.90
35111;DHT22;21290;50.158;8.658;2023-04-25T02:10:59;7.60;99.90
35111;DHT22;21290;50.158;8.658;2023-04-25T02:13:26;7.60;99.90
35111;DHT22;21290;50.158;8.658;2023-04-25T02:15:52;7.60;99.90
35111;DHT22;21290;50.158;8.658;2023-04-25T02:18:19;7.60;99.90
35111;DHT22;21290;50.158;8.658;2023-04-25T02:20:47;7.50;99.90
35111;DHT22;21290;50.158;8.658;2023-04-25T02:23:14;7.50;99.90
35111;DHT22;21290;50.158;8.658;2023-04-25T02:25:41;7.50;99.90
35111;DHT22;21290;50.158;8.658;2023-04-25T02:28:08;7.50;99.90
35111;DHT22;21290;50.158;8.658;2023-04-25T02:30:35;7.50;99.90
35111;DHT22;21290;50.158;8.658;2023-04-25T02:33:02;7.50;99.90
35111;DHT22;21290;50.158;8.658;2023-04-25T02:35:28;7.50;99.90
35111;DHT22;21290;50.158;8.658;2023-04-25T02:37:55;7.50;99.90
35111;DHT22;21290;50.158;8.658;2023-04-25T02:40:21;7.50;99.90
35111;DHT22;21290;50.158;8.658;2023-04-25T02:42:48;7.40;99.90
35111;DHT22;21290;50.158;8.658;2023-04-25T02:45:15;7.50;99.90
35111;DHT22;21290;50.158;8.658;2023-04-25T02:47:41;7.40;99.90
35111;DHT22;21290;50.158;8.658;2023-04-25T02:50:08;7.40;99.90
35111;DHT22;21290;50.158;8.658;2023-04-25T02:52:34;7.40;99.90
35111;DHT22;21290;50.158;8.658;2023-04-25T02:55:01;7.40;99.90
35111;DHT22;21290;50.158;8.658;2023-04-25T02:57:28;7.40;99.90
35111;DHT22;21290;50.158;8.658;2023-04-25T02:59:54;7.40;99.90
35111;DHT22;21290;50.158;8.658;2023-04-25T03:02:21;7.40;99.90
35111;DHT22;21290;50.158;8.658;2023-04-25T03:04:48;7.40;99.90
35111;DHT22;21290;50.158;8.658;2023-04-25T03:07:14;7.50;99.90
35111;DHT22;21290;50.158;8.658;2023-04-25T03:09:41;7.50;99.90
35111;DHT22;21290;50.158;8.658;2023-04-25T03:12:07;7.40;99.90
35111;DHT22;21290;50.158;8.658;2023-04-25T03:14:34;7.40;99.90
35111;DHT22;21290;50.158;8.658;2023-04-25T03:17:01;7.40;99.90
35111;DHT22;21290;50.158;8.658;2023-04-25T03:19:27;7.40;99.90
35111;DHT22;21290;50.158;8.658;2023-04-25T03:21:54;7.40;99.90
35111;DHT22;21290;50.158;8.658;2023-04-25T03:24:21;7.40;99.90
35111;DHT22;21290;50.158;8.658;2023-04-25T03:26:48;7.40;99.90
35111;DHT22;21290;50.158;8.658;2023-04-25T03:29:14;7.40;99.90
35111;DHT22;21290;50.158;8.658;2023-04-25T03:31:41;7.40;99.90
35111;DHT22;21290;50.158;8.658;2023-04-25T03:34:08;7.50;99.90
35111;DHT22;21290;50.158;8.658;2023-04-25T03:36:35;7.50;99.90
35111;DHT22;21290;50.158;8.658;2023-04-25T03:39:01;7.50;99.90
35111;DHT22;21290;50.158;8.658;2023-04-25T03:41:28;7.50;99.90
35111;DHT22;21290;50.158;8.658;2023-04-25T03:43:54;7.50;99.90
35111;DHT22;21290;50.158;8.658;2023-04-25T03:46:21;7.50;99.90
35111;DHT22;21290;50.158;8.658;2023-04-25T03:48:47;7.50;99.90
35111;DHT22;21290;50.158;8.658;2023-04-25T03:51:14;7.50;99.90
35111;DHT22;21290;50.158;8.658;2023-04-25T03:53:40;7.50;99.90
35111;DHT22;21290;50.158;8.658;2023-04-25T03:56:07;7.50;99.90
35111;DHT22;21290;50.158;8.658;2023-04-25T03:58:34;7.40;99.90
35111;DHT22;21290;50.158;8.658;2023-04-25T04:01:00;7.40;99.90
35111;DHT22;21290;50.158;8.658;2023-04-25T04:03:29;7.40;99.90
35111;DHT22;21290;50.158;8.658;2023-04-25T04:05:56;7.40;99.90
35111;DHT22;21290;50.158;8.658;2023-04-25T04:08:23;7.40;99.90
35111;DHT22;21290;50.158;8.658;2023-04-25T04:10:49;7.40;99.90
35111;DHT22;21290;50.158;8.658;2023-04-25T04:13:16;7.40;99.90
35111;DHT22;21290;50.158;8.658;2023-04-25T04:15:42;7.40;99.90
35111;DHT22;21290;50.158;8.658;2023-04-25T04:18:09;7.40;99.90
35111;DHT22;21290;50.158;8.658;2023-04-25T04:20:36;7.40;99.90
35111;DHT22;21290;50.158;8.658;2023-04-25T04:23:02;7.30;99.90
35111;DHT22;21290;50.158;8.658;2023-04-25T04:25:29;7.30;99.90
35111;DHT22;21290;50.158;8.658;2023-04-25T04:27:56;7.10;99.90
35111;DHT22;21290;50.158;8.658;2023-04-25T04:30:24;7.00;99.90
35111;DHT22;21290;50.158;8.658;2023-04-25T04:32:51;6.90;99.90
35111;DHT22;21290;50.158;8.658;2023-04-25T04:35:18;6.90;99.90
35111;DHT22;21290;50.158;8.658;2023-04-25T04:37:45;6.90;99.90
35111;DHT22;21290;50.158;8.658;2023-04-25T04:40:12;6.90;99.90
35111;DHT22;21290;50.158;8.658;2023-04-25T04:42:42;6.90;99.90
35111;DHT22;21290;50.158;8.658;2023-04-25T04:45:09;6.90;99.90
35111;DHT22;21290;50.158;8.658;2023-04-25T04:47:36;6.80;99.90
35111;DHT22;21290;50.158;8.658;2023-04-25T04:50:04;6.90;99.90
35111;DHT22;21290;50.158;8.658;2023-04-25T04:52:30;6.90;99.90
35111;DHT22;21290;50.158;8.658;2023-04-25T04:54:57;6.90;99.90
35111;DHT22;21290;50.158;8.658;2023-04-25T04:57:23;7.00;99.90
35111;DHT22;21290;50.158;8.658;2023-04-25T04:59:50;7.10;99.90
35111;DHT22;21290;50.158;8.658;2023-04-25T05:02:17;7.10;99.90
35111;DHT22;21290;50.158;8.658;2023-04-25T05:04:44;7.20;99.90
35111;DHT22;21290;50.158;8.658;2023-04-25T05:07:11;7.20;99.90
35111;DHT22;21290;50.158;8.658;2023-04-25T05:09:38;7.20;99.90
35111;DHT22;21290;50.158;8.658;2023-04-25T05:12:04;7.20;99.90
35111;DHT22;21290;50.158;8.658;2023-04-25T05:14:31;7.30;99.90
35111;DHT22;21290;50.158;8.658;2023-04-25T05:16:58;7.40;99.90
35111;DHT22;21290;50.158;8.658;2023-04-25T05:19:25;7.40;99.90
35111;DHT22;21290;50.158;8.658;2023-04-25T05:21:51;7.50;99.90
35111;DHT22;21290;50.158;8.658;2023-04-25T05:24:18;7.50;99.90
35111;DHT22;21290;50.158;8.658;2023-04-25T05:26:45;7.60;99.90
35111;DHT22;21290;50.158;8.658;2023-04-25T05:29:11;7.60;99.90
35111;DHT22;21290;50.158;8.658;2023-04-25T05:31:38;7.60;99.90
35111;DHT22;21290;50.158;8.658;2023-04-25T05:34:04;7.70;99.90
35111;DHT22;21290;50.158;8.658;2023-04-25T05:36:31;7.70;99.90
35111;DHT22;21290;50.158;8.658;2023-04-25T05:38:58;7.90;99.90
35111;DHT22;21290;50.158;8.658;2023-04-25T05:41:25;8.10;99.90
35111;DHT22;21290;50.158;8.658;2023-04-25T05:43:51;8.20;99.90
35111;DHT22;21290;50.158;8.658;2023-04-25T05:46:21;8.30;99.90
35111;DHT22;21290;50.158;8.658;2023-04-25T05:48:48;8.50;99.90
35111;DHT22;21290;50.158;8.658;2023-04-25T05:51:14;8.50;99.90
35111;DHT22;21290;50.158;8.658;2023-04-25T05:53:42;8.70;99.90
35111;DHT22;21290;50.158;8.658;2023-04-25T05:56:09;8.80;99.90
35111;DHT22;21290;50.158;8.658;2023-04-25T05:58:35;8.90;99.90
35111;DHT22;21290;50.158;8.658;2023-04-25T06:01:02;8.90;99.90
35111;DHT22;21290;50.158;8.658;2023-04-25T06:03:29;9.10;99.90
35111;DHT22;21290;50.158;8.658;2023-04-25T06:05:57;9.10;99.90
35111;DHT22;21290;50.158;8.658;2023-04-25T06:08:23;9.20;99.90
35111;DHT22;21290;50.158;8.658;2023-04-25T06:10:50;9.30;99.90
35111;DHT22;21290;50.158;8.658;2023-04-25T06:13:17;9.30;99.90
35111;DHT22;21290;50.158;8.658;2023-04-25T06:15:43;9.50;99.90
35111;DHT22;21290;50.158;8.658;2023-04-25T06:18:10;9.60;99.90
35111;DHT22;21290;50.158;8.658;2023-04-25T06:20:36;9.70;99.90
35111;DHT22;21290;50.158;8.658;2023-04-25T06:23:03;9.90;99.90
35111;DHT22;21290;50.158;8.658;2023-04-25T06:25:29;9.90;99.90
35111;DHT22;21290;50.158;8.658;2023-04-25T06:27:56;10.00;99.90
35111;DHT22;21290;50.158;8.658;2023-04-25T06:30:23;10.20;99.90
35111;DHT22;21290;50.158;8.658;2023-04-25T06:32:52;10.30;99.90
35111;DHT22;21290;50.158;8.658;2023-04-25T06:35:19;10.30;99.90
35111;DHT22;21290;50.158;8.658;2023-04-25T06:37:46;10.50;99.90
35111;DHT22;21290;50.158;8.658;2023-04-25T06:40:13;10.70;99.90
35111;DHT22;21290;50.158;8.658;2023-04-25T06:42:40;10.80;99.90
35111;DHT22;21290;50.158;8.658;2023-04-25T06:45:07;10.80;99.90
35111;DHT22;21290;50.158;8.658;2023-04-25T06:47:33;11.10;99.90
35111;DHT22;21290;50.158;8.658;2023-04-25T06:50:00;11.20;99.90
35111;DHT22;21290;50.158;8.658;2023-04-25T06:52:27;11.30;99.90
35111;DHT22;21290;50.158;8.658;2023-04-25T06:54:53;11.40;99.90
35111;DHT22;21290;50.158;8.658;2023-04-25T06:57:20;11.50;99.90
35111;DHT22;21290;50.158;8.658;2023-04-25T06:59:46;11.60;99.90
35111;DHT22;21290;50.158;8.658;2023-04-25T07:02:13;11.60;99.90
35111;DHT22;21290;50.158;8.658;2023-04-25T07:04:40;11.60;99.90
35111;DHT22;21290;50.158;8.658;2023-04-25T07:07:08;11.80;99.90
35111;DHT22;21290;50.158;8.658;2023-04-25T07:09:34;11.80;99.90
35111;DHT22;21290;50.158;8.658;2023-04-25T07:12:01;12.10;99.90
35111;DHT22;21290;50.158;8.658;2023-04-25T07:14:28;12.30;99.90
35111;DHT22;21290;50.158;8.658;2023-04-25T07:16:54;12.60;99.90
35111;DHT22;21290;50.158;8.658;2023-04-25T07:19:34;12.90;99.90
35111;DHT22;21290;50.158;8.658;2023-04-25T07:22:01;13.00;99.90
35111;DHT22;21290;50.158;8.658;2023-04-25T07:24:28;13.00;99.90
35111;DHT22;21290;50.158;8.658;2023-04-25T07:26:55;12.90;99.90
35111;DHT22;21290;50.158;8.658;2023-04-25T07:29:21;13.00;99.90
35111;DHT22;21290;50.158;8.658;2023-04-25T07:31:48;13.00;99.90
35111;DHT22;21290;50.158;8.658;2023-04-25T07:34:15;13.10;99.90
35111;DHT22;21290;50.158;8.658;2023-04-25T07:36:42;13.40;99.90
35111;DHT22;21290;50.158;8.658;2023-04-25T07:39:08;13.80;99.90
35111;DHT22;21290;50.158;8.658;2023-04-25T07:41:35;14.20;99.90
35111;DHT22;21290;50.158;8.658;2023-04-25T07:44:02;14.50;99.90
35111;DHT22;21290;50.158;8.658;2023-04-25T07:46:28;14.80;99.90
35111;DHT22;21290;50.158;8.658;2023-04-25T07:48:56;15.10;99.90
35111;DHT22;21290;50.158;8.658;2023-04-25T07:51:22;15.40;98.20
35111;DHT22;21290;50.158;8.658;2023-04-25T07:53:49;15.80;98.10
35111;DHT22;21290;50.158;8.658;2023-04-25T07:56:16;16.00;97.20
35111;DHT22;21290;50.158;8.658;2023-04-25T07:58:42;15.80;96.30
35111;DHT22;21290;50.158;8.658;2023-04-25T08:01:09;15.80;96.20
35111;DHT22;21290;50.158;8.658;2023-04-25T08:03:36;15.60;95.50
35111;DHT22;21290;50.158;8.658;2023-04-25T08:06:03;15.70;95.30
35111;DHT22;21290;50.158;8.658;2023-04-25T08:08:33;16.20;95.10
35111;DHT22;21290;50.158;8.658;2023-04-25T08:11:00;16.70;94.70
35111;DHT22;21290;50.158;8.658;2023-04-25T08:13:26;16.80;94.40
35111;DHT22;21290;50.158;8.658;2023-04-25T08:15:53;17.10;93.30
35111;DHT22;21290;50.158;8.658;2023-04-25T08:18:21;17.10;91.40
35111;DHT22;21290;50.158;8.658;2023-04-25T08:20:47;17.00;93.00
35111;DHT22;21290;50.158;8.658;2023-04-25T08:23:14;17.50;92.70
35111;DHT22;21290;50.158;8.658;2023-04-25T08:25:41;18.10;91.50
35111;DHT22;21290;50.158;8.658;2023-04-25T08:28:07;17.70;89.10
35111;DHT22;21290;50.158;8.658;2023-04-25T08:30:34;17.70;90.10
35111;DHT22;21290;50.158;8.658;2023-04-25T08:33:01;18.60;86.20
35111;DHT22;21290;50.158;8.658;2023-04-25T08:35:27;20.00;81.70
35111;DHT22;21290;50.158;8.658;2023-04-25T08:37:54;20.30;79.70
35111;DHT22;21290;50.158;8.658;2023-04-25T08:40:22;21.00;77.10
35111;DHT22;21290;50.158;8.658;2023-04-25T08:42:57;21.00;75.00
35111;DHT22;21290;50.158;8.658;2023-04-25T08:45:27;20.40;75.20
35111;DHT22;21290;50.158;8.658;2023-04-25T08:47:54;20.40;75.00
35111;DHT22;21290;50.158;8.658;2023-04-25T08:50:23;20.00;74.60
35111;DHT22;21290;50.158;8.658;2023-04-25T08:52:54;20.30;73.60
35111;DHT22;21290;50.158;8.658;2023-04-25T08:55:23;20.90;71.70
35111;DHT22;21290;50.158;8.658;2023-04-25T08:57:50;22.00;70.40
35111;DHT22;21290;50.158;8.658;2023-04-25T09:00:18;23.00;68.20
35111;DHT22;21290;50.158;8.658;2023-04-25T09:02:46;23.60;64.30
35111;DHT22;21290;50.158;8.658;2023-04-25T09:05:14;23.00;62.90
35111;DHT22;21290;50.158;8.658;2023-04-25T09:07:41;22.70;61.90
35111;DHT22;21290;50.158;8.658;2023-04-25T09:10:07;22.80;62.40
35111;DHT22;21290;50.158;8.658;2023-04-25T09:12:35;22.80;62.00
35111;DHT22;21290;50.158;8.658;2023-04-25T09:15:11;22.10;62.50
35111;DHT22;21290;50.158;8.658;2023-04-25T09:17:41;21.60;62.60
35111;DHT22;21290;50.158;8.658;2023-04-25T09:20:12;20.60;64.30
35111;DHT22;21290;50.158;8.658;2023-04-25T09:22:39;19.80;66.60
35111;DHT22;21290;50.158;8.658;2023-04-25T09:25:10;19.20;66.90
35111;DHT22;21290;50.158;8.658;2023-04-25T09:27:50;18.70;66.70
35111;DHT22;21290;50.158;8.658;2023-04-25T09:30:18;18.70;66.20
35111;DHT22;21290;50.158;8.658;2023-04-25T09:32:45;20.10;66.00
35111;DHT22;21290;50.158;8.658;2023-04-25T09:35:23;21.60;63.80
35111;DHT22;21290;50.158;8.658;2023-04-25T09:37:51;23.70;60.40
35111;DHT22;21290;50.158;8.658;2023-04-25T09:40:18;24.30;55.50
35111;DHT22;21290;50.158;8.658;2023-04-25T09:42:45;24.80;57.90
35111;DHT22;21290;50.158;8.658;2023-04-25T09:45:13;26.00;54.90
35111;DHT22;21290;50.158;8.658;2023-04-25T09:47:41;26.30;52.90
35111;DHT22;21290;50.158;8.658;2023-04-25T09:50:13;26.30;52.00
35111;DHT22;21290;50.158;8.658;2023-04-25T09:52:40;24.80;52.00
35111;DHT22;21290;50.158;8.658;2023-04-25T09:55:07;23.70;54.00
35111;DHT22;21290;50.158;8.658;2023-04-25T09:57:35;23.50;56.30
35111;DHT22;21290;50.158;8.658;2023-04-25T10:00:07;24.30;56.20
35111;DHT22;21290;50.158;8.658;2023-04-25T10:02:38;25.20;54.50
35111;DHT22;21290;50.158;8.658;2023-04-25T10:05:09;25.80;53.10
35111;DHT22;21290;50.158;8.658;2023-04-25T10:07:37;25.00;53.10
35111;DHT22;21290;50.158;8.658;2023-04-25T10:10:05;23.50;53.40
35111;DHT22;21290;50.158;8.658;2023-04-25T10:12:35;22.20;55.20
35111;DHT22;21290;50.158;8.658;2023-04-25T10:15:03;21.00;57.30
35111;DHT22;21290;50.158;8.658;2023-04-25T10:17:31;19.90;59.70
35111;DHT22;21290;50.158;8.658;2023-04-25T10:20:01;19.00;61.50
35111;DHT22;21290;50.158;8.658;2023-04-25T10:22:34;18.50;62.50
35111;DHT22;21290;50.158;8.658;2023-04-25T10:25:02;17.90;64.20
35111;DHT22;21290;50.158;8.658;2023-04-25T10:27:31;17.30;65.20
35111;DHT22;21290;50.158;8.658;2023-04-25T10:30:14;16.80;68.00
35111;DHT22;21290;50.158;8.658;2023-04-25T10:32:43;16.00;71.10
35111;DHT22;21290;50.158;8.658;2023-04-25T10:35:23;15.30;75.10
35111;DHT22;21290;50.158;8.658;2023-04-25T10:37:57;14.90;78.10
35111;DHT22;21290;50.158;8.658;2023-04-25T10:40:25;14.40;80.40
35111;DHT22;21290;50.158;8.658;2023-04-25T10:42:52;13.90;84.90
35111;DHT22;21290;50.158;8.658;2023-04-25T10:45:20;13.50;86.00
35111;DHT22;21290;50.158;8.658;2023-04-25T10:47:47;13.30;89.10
35111;DHT22;21290;50.158;8.658;2023-04-25T10:50:15;13.10;91.40
35111;DHT22;21290;50.158;8.658;2023-04-25T10:52:44;12.80;91.30
35111;DHT22;21290;50.158;8.658;2023-04-25T10:55:11;12.80;92.20
35111;DHT22;21290;50.158;8.658;2023-04-25T10:57:41;12.70;93.50
35111;DHT22;21290;50.158;8.658;2023-04-25T11:00:11;12.70;95.30
35111;DHT22;21290;50.158;8.658;2023-04-25T11:02:46;12.60;95.60
35111;DHT22;21290;50.158;8.658;2023-04-25T11:07:55;12.80;94.10
35111;DHT22;21290;50.158;8.658;2023-04-25T11:10:47;12.80;94.00
35111;DHT22;21290;50.158;8.658;2023-04-25T11:13:15;13.20;94.30
35111;DHT22;21290;50.158;8.658;2023-04-25T11:15:42;13.30;94.10
35111;DHT22;21290;50.158;8.658;2023-04-25T11:18:09;13.40;93.70
35111;DHT22;21290;50.158;8.658;2023-04-25T11:20:36;13.40;93.60
35111;DHT22;21290;50.158;8.658;2023-04-25T11:23:06;13.20;92.70
35111;DHT22;21290;50.158;8.658;2023-04-25T11:25:47;13.20;93.20
35111;DHT22;21290;50.158;8.658;2023-04-25T11:28:21;13.10;91.40
35111;DHT22;21290;50.158;8.658;2023-04-25T11:30:50;13.00;91.40
35111;DHT22;21290;50.158;8.658;2023-04-25T11:33:17;12.90;91.70
35111;DHT22;21290;50.158;8.658;2023-04-25T11:35:44;13.20;90.50
35111;DHT22;21290;50.158;8.658;2023-04-25T11:38:11;13.80;90.00
35111;DHT22;21290;50.158;8.658;2023-04-25T11:40:38;14.90;89.00
35111;DHT22;21290;50.158;8.658;2023-04-25T11:43:05;15.80;84.20
35111;DHT22;21290;50.158;8.658;2023-04-25T11:45:32;16.40;90.00
35111;DHT22;21290;50.158;8.658;2023-04-25T11:47:59;16.50;79.30
35111;DHT22;21290;50.158;8.658;2023-04-25T11:50:28;16.40;77.10
35111;DHT22;21290;50.158;8.658;2023-04-25T11:52:56;16.20;75.80
35111;DHT22;21290;50.158;8.658;2023-04-25T11:55:22;16.20;77.00
35111;DHT22;21290;50.158;8.658;2023-04-25T11:57:51;15.80;76.50
35111;DHT22;21290;50.158;8.658;2023-04-25T12:00:21;15.50;76.30
35111;DHT22;21290;50.158;8.658;2023-04-25T12:02:53;15.10;76.10
35111;DHT22;21290;50.158;8.658;2023-04-25T12:05:24;14.60;76.20
35111;DHT22;21290;50.158;8.658;2023-04-25T12:08:12;14.30;77.60
35111;DHT22;21290;50.158;8.658;2023-04-25T12:10:47;14.10;77.50
35111;DHT22;21290;50.158;8.658;2023-04-25T12:13:32;13.90;78.30
35111;DHT22;21290;50.158;8.658;2023-04-25T12:16:00;13.60;79.50
35111;DHT22;21290;50.158;8.658;2023-04-25T12:18:26;13.40;79.40
35111;DHT22;21290;50.158;8.658;2023-04-25T12:20:56;13.30;81.90
35111;DHT22;21290;50.158;8.658;2023-04-25T12:23:26;13.10;83.40
35111;DHT22;21290;50.158;8.658;2023-04-25T12:25:55;12.90;84.70
35111;DHT22;21290;50.158;8.658;2023-04-25T12:28:24;12.70;86.00
35111;DHT22;21290;50.158;8.658;2023-04-25T12:30:55;12.50;87.50
35111;DHT22;21290;50.158;8.658;2023-04-25T12:33:23;12.30;89.00
35111;DHT22;21290;50.158;8.658;2023-04-25T12:35:49;12.20;90.20
35111;DHT22;21290;50.158;8.658;2023-04-25T12:38:27;12.00;91.00
35111;DHT22;21290;50.158;8.658;2023-04-25T12:41:04;12.00;91.20
35111;DHT22;21290;50.158;8.658;2023-04-25T12:43:33;12.10;91.10
35111;DHT22;21290;50.158;8.658;2023-04-25T12:46:00;12.30;91.00
35111;DHT22;21290;50.158;8.658;2023-04-25T12:48:27;12.60;90.10
35111;DHT22;21290;50.158;8.658;2023-04-25T12:50:54;13.00;90.20
35111;DHT22;21290;50.158;8.658;2023-04-25T12:53:22;13.50;88.80
35111;DHT22;21290;50.158;8.658;2023-04-25T12:55:50;13.90;86.80
35111;DHT22;21290;50.158;8.658;2023-04-25T12:58:19;14.40;86.10
35111;DHT22;21290;50.158;8.658;2023-04-25T13:00:46;14.70;84.00
35111;DHT22;21290;50.158;8.658;2023-04-25T13:03:12;14.80;80.70
35111;DHT22;21290;50.158;8.658;2023-04-25T13:05:40;15.20;81.90
35111;DHT22;21290;50.158;8.658;2023-04-25T13:08:07;15.50;77.10
35111;DHT22;21290;50.158;8.658;2023-04-25T13:10:34;15.50;78.20
35111;DHT22;21290;50.158;8.658;2023-04-25T13:13:02;15.50;77.10
35111;DHT22;21290;50.158;8.658;2023-04-25T13:15:29;15.10;77.90
35111;DHT22;21290;50.158;8.658;2023-04-25T13:17:55;15.00;78.60
35111;DHT22;21290;50.158;8.658;2023-04-25T13:20:22;14.90;78.90
35111;DHT22;21290;50.158;8.658;2023-04-25T13:22:49;14.70;77.50
35111;DHT22;21290;50.158;8.658;2023-04-25T13:25:16;14.60;77.10
35111;DHT22;21290;50.158;8.658;2023-04-25T13:27:43;14.30;76.80
35111;DHT22;21290;50.158;8.658;2023-04-25T13:30:11;14.10;77.50
35111;DHT22;21290;50.158;8.658;2023-04-25T13:32:38;14.00;81.40
35111;DHT22;21290;50.158;8.658;2023-04-25T13:35:06;13.90;78.80
35111;DHT22;21290;50.158;8.658;2023-04-25T13:37:36;13.90;78.40
35111;DHT22;21290;50.158;8.658;2023-04-25T13:40:05;13.80;78.30
35111;DHT22;21290;50.158;8.658;2023-04-25T13:42:32;13.80;77.60
35111;DHT22;21290;50.158;8.658;2023-04-25T13:44:59;13.90;78.20
35111;DHT22;21290;50.158;8.658;2023-04-25T13:47:26;13.90;77.80
35111;DHT22;21290;50.158;8.658;2023-04-25T13:49:53;14.00;78.20
35111;DHT22;21290;50.158;8.658;2023-04-25T13:52:20;13.90;78.20
35111;DHT22;21290;50.158;8.658;2023-04-25T13:54:47;13.90;79.40
35111;DHT22;21290;50.158;8.658;2023-04-25T13:57:13;13.90;79.80
35111;DHT22;21290;50.158;8.658;2023-04-25T13:59:40;14.10;80.30
35111;DHT22;21290;50.158;8.658;2023-04-25T14:02:07;14.40;79.40
35111;DHT22;21290;50.158;8.658;2023-04-25T14:04:33;14.60;79.10
35111;DHT22;21290;50.158;8.658;2023-04-25T14:07:00;14.90;76.80
35111;DHT22;21290;50.158;8.658;2023-04-25T14:09:28;15.10;76.40
35111;DHT22;21290;50.158;8.658;2023-04-25T14:11:55;15.30;76.10
35111;DHT22;21290;50.158;8.658;2023-04-25T14:14:22;15.50;74.80
35111;DHT22;21290;50.158;8.658;2023-04-25T14:16:51;15.60;75.80
35111;DHT22;21290;50.158;8.658;2023-04-25T14:19:18;15.70;75.10
35111;DHT22;21290;50.158;8.658;2023-04-25T14:21:47;15.70;72.20
35111;DHT22;21290;50.158;8.658;2023-04-25T14:24:14;15.60;72.10
35111;DHT22;21290;50.158;8.658;2023-04-25T14:26:41;15.40;71.60
35111;DHT22;21290;50.158;8.658;2023-04-25T14:29:09;15.10;70.90
35111;DHT22;21290;50.158;8.658;2023-04-25T14:31:38;14.70;71.40
35111;DHT22;21290;50.158;8.658;2023-04-25T14:34:06;14.60;72.40
35111;DHT22;21290;50.158;8.658;2023-04-25T14:36:33;14.50;72.70
35111;DHT22;21290;50.158;8.658;2023-04-25T14:39:00;14.30;73.60
35111;DHT22;21290;50.158;8.658;2023-04-25T14:41:27;14.20;75.00
35111;DHT22;21290;50.158;8.658;2023-04-25T14:43:53;14.30;74.90
35111;DHT22;21290;50.158;8.658;2023-04-25T14:46:20;14.20;73.30
35111;DHT22;21290;50.158;8.658;2023-04-25T14:48:48;14.00;73.50
35111;DHT22;21290;50.158;8.658;2023-04-25T14:51:15;13.90;72.90
35111;DHT22;21290;50.158;8.658;2023-04-25T14:53:42;13.70;72.80
35111;DHT22;21290;50.158;8.658;2023-04-25T14:56:08;13.70;73.80
35111;DHT22;21290;50.158;8.658;2023-04-25T14:58:35;13.50;74.00
35111;DHT22;21290;50.158;8.658;2023-04-25T15:01:02;13.50;75.20
35111;DHT22;21290;50.158;8.658;2023-04-25T15:03:28;13.40;75.40
35111;DHT22;21290;50.158;8.658;2023-04-25T15:05:55;13.50;76.60
35111;DHT22;21290;50.158;8.658;2023-04-25T15:08:22;13.40;76.30
35111;DHT22;21290;50.158;8.658;2023-04-25T15:10:49;13.30;76.20
35111;DHT22;21290;50.158;8.658;2023-04-25T15:13:17;13.30;76.70
35111;DHT22;21290;50.158;8.658;2023-04-25T15:15:44;13.40;76.70
35111;DHT22;21290;50.158;8.658;2023-04-25T15:18:11;13.60;76.60
35111;DHT22;21290;50.158;8.658;2023-04-25T15:20:38;13.60;73.50
35111;DHT22;21290;50.158;8.658;2023-04-25T15:23:04;13.80;73.00
35111;DHT22;21290;50.158;8.658;2023-04-25T15:25:31;13.80;73.40
35111;DHT22;21290;50.158;8.658;2023-04-25T15:27:58;13.90;75.00
35111;DHT22;21290;50.158;8.658;2023-04-25T15:30:26;13.80;74.60
35111;DHT22;21290;50.158;8.658;2023-04-25T15:32:53;14.00;75.70
35111;DHT22;21290;50.158;8.658;2023-04-25T15:35:20;14.00;74.60
35111;DHT22;21290;50.158;8.658;2023-04-25T15:37:46;14.30;76.50
35111;DHT22;21290;50.158;8.658;2023-04-25T15:40:16;14.30;75.50
35111;DHT22;21290;50.158;8.658;2023-04-25T15:42:48;14.10;75.20